sensor_id;sensor_type;location;lat;lon;timestamp;pressure;altitude;pressure_sealevel;temperature;humidity
75006;BME280;63553;51.814;4.600;2023-09-07T00:01:10;102037.22;;;21.49;68.99
75006;BME280;63553;51.814;4.600;2023-09-07T00:03:36;102033.25;;;21.53;68.33
75006;BME280;63553;51.814;4.600;2023-09-07T00:06:06;102026.78;;;21.53;68.83
75006;BME280;63553;51.814;4.600;2023-09-07T00:08:31;102036.28;;;21.45;68.84
75006;BME280;63553;51.814;4.600;2023-09-07T00:11:05;102025.25;;;21.55;68.08
75006;BME280;63553;51.814;4.600;2023-09-07T00:13:32;102028.75;;;21.68;67.99
75006;BME280;63553;51.814;4.600;2023-09-07T00:16:04;102022.78;;;21.38;69.64
75006;BME280;63553;51.814;4.600;2023-09-07T00:18:30;102031.03;;;21.43;68.67
75006;BME280;63553;51.814;4.600;2023-09-07T00:20:55;102017.31;;;21.30;69.46
75006;BME280;63553;51.814;4.600;2023-09-07T00:23:21;102026.44;;;21.39;68.84
75006;BME280;63553;51.814;4.600;2023-09-07T00:25:47;102018.88;;;21.43;68.80
75006;BME280;63553;51.814;4.600;2023-09-07T00:28:12;102015.66;;;21.44;68.34
75006;BME280;63553;51.814;4.600;2023-09-07T00:30:38;102020.31;;;21.52;68.71
75006;BME280;63553;51.814;4.600;2023-09-07T00:33:04;102019.22;;;21.41;68.24
75006;BME280;63553;51.814;4.600;2023-09-07T00:35:29;102020.22;;;21.49;67.66
75006;BME280;63553;51.814;4.600;2023-09-07T00:37:55;102018.97;;;21.31;68.56
75006;BME280;63553;51.814;4.600;2023-09-07T00:40:22;102017.94;;;21.54;68.00
75006;BME280;63553;51.814;4.600;2023-09-07T00:42:47;102021.91;;;21.34;68.13
75006;BME280;63553;51.814;4.600;2023-09-07T00:45:12;102019.81;;;21.31;68.25
75006;BME280;63553;51.814;4.600;2023-09-07T00:47:39;102012.69;;;21.22;68.24
75006;BME280;63553;51.814;4.600;2023-09-07T00:50:05;102020.16;;;21.30;68.03
75006;BME280;63553;51.814;4.600;2023-09-07T00:52:32;102022.66;;;21.66;69.26
75006;BME280;63553;51.814;4.600;2023-09-07T00:54:59;102018.69;;;21.20;68.31
75006;BME280;63553;51.814;4.600;2023-09-07T00:57:25;102021.66;;;21.08;68.61
75006;BME280;63553;51.814;4.600;2023-09-07T00:59:50;102009.47;;;21.08;68.65
75006;BME280;63553;51.814;4.600;2023-09-07T01:02:15;102010.19;;;20.89;69.67
75006;BME280;63553;51.814;4.600;2023-09-07T01:04:41;102008.00;;;20.98;69.70
75006;BME280;63553;51.814;4.600;2023-09-07T01:07:17;102003.53;;;20.97;69.24
75006;BME280;63553;51.814;4.600;2023-09-07T01:09:47;102007.56;;;21.27;68.83
75006;BME280;63553;51.814;4.600;2023-09-07T01:12:17;101998.53;;;21.22;67.72
75006;BME280;63553;51.814;4.600;2023-09-07T01:14:42;102004.28;;;21.25;68.55
75006;BME280;63553;51.814;4.600;2023-09-07T01:17:09;102006.84;;;21.65;69.07
75006;BME280;63553;51.814;4.600;2023-09-07T01:19:36;102002.88;;;22.43;67.84
75006;BME280;63553;51.814;4.600;2023-09-07T01:22:02;102007.34;;;21.86;66.73
75006;BME280;63553;51.814;4.600;2023-09-07T01:24:28;102002.47;;;22.22;65.65
75006;BME280;63553;51.814;4.600;2023-09-07T01:26:59;102003.75;;;21.70;67.08
75006;BME280;63553;51.814;4.600;2023-09-07T01:29:25;102007.53;;;21.93;65.46
75006;BME280;63553;51.814;4.600;2023-09-07T01:31:54;101999.94;;;22.78;66.69
75006;BME280;63553;51.814;4.600;2023-09-07T01:34:20;101992.38;;;23.57;64.61
75006;BME280;63553;51.814;4.600;2023-09-07T01:36:45;101988.56;;;22.55;64.11
75006;BME280;63553;51.814;4.600;2023-09-07T01:39:11;102002.63;;;21.90;66.89
75006;BME280;63553;51.814;4.600;2023-09-07T01:41:36;101995.03;;;22.97;66.95
75006;BME280;63553;51.814;4.600;2023-09-07T01:44:02;101999.81;;;23.65;64.92
75006;BME280;63553;51.814;4.600;2023-09-07T01:46:27;101998.81;;;24.10;63.23
75006;BME280;63553;51.814;4.600;2023-09-07T01:48:53;101999.34;;;24.19;62.91
75006;BME280;63553;51.814;4.600;2023-09-07T01:51:18;101999.47;;;24.29;62.04
75006;BME280;63553;51.814;4.600;2023-09-07T01:53:47;101998.88;;;24.47;61.09
75006;BME280;63553;51.814;4.600;2023-09-07T01:56:13;102001.78;;;24.17;60.49
75006;BME280;63553;51.814;4.600;2023-09-07T01:58:38;102004.00;;;22.77;63.01
75006;BME280;63553;51.814;4.600;2023-09-07T02:01:06;102013.59;;;21.26;68.45
75006;BME280;63553;51.814;4.600;2023-09-07T02:03:31;102013.22;;;19.97;73.56
75006;BME280;63553;51.814;4.600;2023-09-07T02:05:56;102014.06;;;19.85;74.14
75006;BME280;63553;51.814;4.600;2023-09-07T02:08:22;102015.91;;;20.06;74.31
75006;BME280;63553;51.814;4.600;2023-09-07T02:10:47;102012.56;;;20.43;72.01
75006;BME280;63553;51.814;4.600;2023-09-07T02:13:13;102011.34;;;21.50;70.99
75006;BME280;63553;51.814;4.600;2023-09-07T02:15:38;102017.72;;;21.98;67.87
75006;BME280;63553;51.814;4.600;2023-09-07T02:18:05;102014.41;;;22.11;66.23
75006;BME280;63553;51.814;4.600;2023-09-07T02:20:31;102013.78;;;22.22;67.88
75006;BME280;63553;51.814;4.600;2023-09-07T02:22:57;102007.81;;;22.65;66.80
75006;BME280;63553;51.814;4.600;2023-09-07T02:25:22;102003.78;;;22.66;66.20
75006;BME280;63553;51.814;4.600;2023-09-07T02:27:47;102003.66;;;23.04;65.12
75006;BME280;63553;51.814;4.600;2023-09-07T02:30:13;102002.22;;;22.68;63.71
75006;BME280;63553;51.814;4.600;2023-09-07T02:32:38;101996.00;;;22.21;64.27
75006;BME280;63553;51.814;4.600;2023-09-07T02:35:04;101992.47;;;21.54;66.60
75006;BME280;63553;51.814;4.600;2023-09-07T02:37:29;101990.94;;;22.95;65.59
75006;BME280;63553;51.814;4.600;2023-09-07T02:39:55;101982.78;;;23.95;61.96
75006;BME280;63553;51.814;4.600;2023-09-07T02:42:20;101989.53;;;23.57;62.87
75006;BME280;63553;51.814;4.600;2023-09-07T02:44:45;101999.50;;;24.33;60.87
75006;BME280;63553;51.814;4.600;2023-09-07T02:47:11;101999.94;;;24.35;60.42
75006;BME280;63553;51.814;4.600;2023-09-07T02:49:36;101997.78;;;24.58;59.32
75006;BME280;63553;51.814;4.600;2023-09-07T02:52:01;101997.84;;;24.28;60.49
75006;BME280;63553;51.814;4.600;2023-09-07T02:54:27;102001.25;;;23.82;62.00
75006;BME280;63553;51.814;4.600;2023-09-07T02:56:52;101982.91;;;22.78;63.51
75006;BME280;63553;51.814;4.600;2023-09-07T02:59:18;101990.09;;;23.96;61.33
75006;BME280;63553;51.814;4.600;2023-09-07T03:01:43;101994.44;;;23.86;61.95
75006;BME280;63553;51.814;4.600;2023-09-07T03:04:08;101995.16;;;24.43;60.04
75006;BME280;63553;51.814;4.600;2023-09-07T03:06:34;102000.28;;;24.63;59.60
75006;BME280;63553;51.814;4.600;2023-09-07T03:08:59;102003.22;;;24.74;58.79
75006;BME280;63553;51.814;4.600;2023-09-07T03:11:25;102002.44;;;24.77;58.73
75006;BME280;63553;51.814;4.600;2023-09-07T03:13:51;102001.31;;;24.81;58.38
75006;BME280;63553;51.814;4.600;2023-09-07T03:16:17;101999.66;;;24.80;58.63
75006;BME280;63553;51.814;4.600;2023-09-07T03:18:42;101998.88;;;24.83;58.46
75006;BME280;63553;51.814;4.600;2023-09-07T03:21:08;102001.81;;;24.91;58.18
75006;BME280;63553;51.814;4.600;2023-09-07T03:23:34;101995.97;;;24.80;58.40
75006;BME280;63553;51.814;4.600;2023-09-07T03:25:59;101997.44;;;24.63;58.86
75006;BME280;63553;51.814;4.600;2023-09-07T03:28:25;102001.19;;;24.74;58.78
75006;BME280;63553;51.814;4.600;2023-09-07T03:30:51;102000.47;;;24.81;58.40
75006;BME280;63553;51.814;4.600;2023-09-07T03:33:17;101994.84;;;24.84;58.46
75006;BME280;63553;51.814;4.600;2023-09-07T03:35:42;102003.22;;;24.74;58.16
75006;BME280;63553;51.814;4.600;2023-09-07T03:38:08;101994.72;;;24.77;58.54
75006;BME280;63553;51.814;4.600;2023-09-07T03:40:33;101995.81;;;24.66;58.48
75006;BME280;63553;51.814;4.600;2023-09-07T03:42:59;101994.84;;;24.51;59.16
75006;BME280;63553;51.814;4.600;2023-09-07T03:45:24;102002.47;;;23.05;61.08
75006;BME280;63553;51.814;4.600;2023-09-07T03:47:49;102013.00;;;20.73;68.42
75006;BME280;63553;51.814;4.600;2023-09-07T03:50:15;102004.16;;;20.31;70.88
75006;BME280;63553;51.814;4.600;2023-09-07T03:52:40;102004.16;;;20.75;70.13
75006;BME280;63553;51.814;4.600;2023-09-07T03:55:06;102003.47;;;20.22;72.17
75006;BME280;63553;51.814;4.600;2023-09-07T03:57:31;102007.50;;;19.69;72.67
75006;BME280;63553;51.814;4.600;2023-09-07T03:59:57;102015.66;;;19.98;72.56
75006;BME280;63553;51.814;4.600;2023-09-07T04:02:24;102009.19;;;19.58;74.01
75006;BME280;63553;51.814;4.600;2023-09-07T04:04:50;102016.72;;;19.54;73.99
75006;BME280;63553;51.814;4.600;2023-09-07T04:07:16;102015.78;;;19.50;73.78
75006;BME280;63553;51.814;4.600;2023-09-07T04:09:42;102013.56;;;19.44;74.47
75006;BME280;63553;51.814;4.600;2023-09-07T04:12:09;102013.28;;;19.73;73.42
75006;BME280;63553;51.814;4.600;2023-09-07T04:14:34;102021.06;;;19.52;74.18
75006;BME280;63553;51.814;4.600;2023-09-07T04:17:00;102020.00;;;19.56;74.29
75006;BME280;63553;51.814;4.600;2023-09-07T04:19:25;102017.38;;;19.75;72.89
75006;BME280;63553;51.814;4.600;2023-09-07T04:21:51;102020.25;;;19.27;74.69
75006;BME280;63553;51.814;4.600;2023-09-07T04:24:16;102018.34;;;19.19;75.04
75006;BME280;63553;51.814;4.600;2023-09-07T04:26:42;102023.88;;;19.39;74.70
75006;BME280;63553;51.814;4.600;2023-09-07T04:29:07;102023.97;;;19.19;75.59
75006;BME280;63553;51.814;4.600;2023-09-07T04:31:33;102026.94;;;19.22;75.42
75006;BME280;63553;51.814;4.600;2023-09-07T04:33:58;102022.09;;;19.11;76.05
75006;BME280;63553;51.814;4.600;2023-09-07T04:36:25;102018.56;;;19.02;76.14
75006;BME280;63553;51.814;4.600;2023-09-07T04:38:50;102028.88;;;18.98;76.47
75006;BME280;63553;51.814;4.600;2023-09-07T04:41:15;102030.06;;;18.84;76.71
75006;BME280;63553;51.814;4.600;2023-09-07T04:43:41;102021.25;;;18.86;76.59
75006;BME280;63553;51.814;4.600;2023-09-07T04:46:10;102023.34;;;18.77;77.52
75006;BME280;63553;51.814;4.600;2023-09-07T04:48:36;102027.13;;;18.81;77.00
75006;BME280;63553;51.814;4.600;2023-09-07T04:51:02;102026.44;;;18.96;76.99
75006;BME280;63553;51.814;4.600;2023-09-07T04:53:33;102029.47;;;18.79;77.11
75006;BME280;63553;51.814;4.600;2023-09-07T04:56:00;102031.38;;;18.99;76.92
75006;BME280;63553;51.814;4.600;2023-09-07T04:58:26;102023.75;;;19.12;76.71
75006;BME280;63553;51.814;4.600;2023-09-07T05:00:51;102021.25;;;18.98;76.38
75006;BME280;63553;51.814;4.600;2023-09-07T05:03:17;102029.94;;;19.78;74.53
75006;BME280;63553;51.814;4.600;2023-09-07T05:05:43;102025.59;;;20.32;72.50
75006;BME280;63553;51.814;4.600;2023-09-07T05:08:09;102026.00;;;20.07;71.61
75006;BME280;63553;51.814;4.600;2023-09-07T05:10:35;102027.28;;;19.69;73.09
75006;BME280;63553;51.814;4.600;2023-09-07T05:13:01;102030.00;;;19.29;75.04
75006;BME280;63553;51.814;4.600;2023-09-07T05:15:26;102035.34;;;18.98;76.38
75006;BME280;63553;51.814;4.600;2023-09-07T05:17:52;102036.41;;;18.94;76.71
75006;BME280;63553;51.814;4.600;2023-09-07T05:20:18;102041.25;;;19.17;76.24
75006;BME280;63553;51.814;4.600;2023-09-07T05:22:43;102043.75;;;19.43;75.91
75006;BME280;63553;51.814;4.600;2023-09-07T05:25:09;102038.66;;;19.24;75.20
75006;BME280;63553;51.814;4.600;2023-09-07T05:27:35;102038.97;;;18.86;76.55
75006;BME280;63553;51.814;4.600;2023-09-07T05:30:04;102042.66;;;19.11;76.04
75006;BME280;63553;51.814;4.600;2023-09-07T05:32:29;102037.03;;;19.35;74.35
75006;BME280;63553;51.814;4.600;2023-09-07T05:34:55;102038.19;;;19.10;75.67
75006;BME280;63553;51.814;4.600;2023-09-07T05:37:20;102042.47;;;19.53;75.58
75006;BME280;63553;51.814;4.600;2023-09-07T05:39:45;102038.09;;;19.55;73.97
75006;BME280;63553;51.814;4.600;2023-09-07T05:42:11;102039.78;;;19.44;74.02
75006;BME280;63553;51.814;4.600;2023-09-07T05:44:37;102034.72;;;19.50;73.59
75006;BME280;63553;51.814;4.600;2023-09-07T05:47:03;102034.19;;;19.84;72.33
75006;BME280;63553;51.814;4.600;2023-09-07T05:49:28;102034.50;;;20.07;71.64
75006;BME280;63553;51.814;4.600;2023-09-07T05:51:54;102041.06;;;19.59;73.48
75006;BME280;63553;51.814;4.600;2023-09-07T05:54:19;102045.00;;;19.82;74.31
75006;BME280;63553;51.814;4.600;2023-09-07T05:56:44;102042.94;;;20.19;71.08
75006;BME280;63553;51.814;4.600;2023-09-07T05:59:10;102042.66;;;21.73;68.57
75006;BME280;63553;51.814;4.600;2023-09-07T06:01:35;102053.31;;;22.14;64.12
75006;BME280;63553;51.814;4.600;2023-09-07T06:04:01;102055.78;;;21.81;64.38
75006;BME280;63553;51.814;4.600;2023-09-07T06:06:26;102046.09;;;22.17;64.03
75006;BME280;63553;51.814;4.600;2023-09-07T06:08:51;102052.19;;;22.77;63.86
75006;BME280;63553;51.814;4.600;2023-09-07T06:11:17;102061.06;;;22.37;63.49
75006;BME280;63553;51.814;4.600;2023-09-07T06:13:42;102053.97;;;23.30;62.23
75006;BME280;63553;51.814;4.600;2023-09-07T06:16:07;102046.66;;;23.29;60.52
75006;BME280;63553;51.814;4.600;2023-09-07T06:18:33;102049.03;;;24.32;58.99
75006;BME280;63553;51.814;4.600;2023-09-07T06:20:58;102055.22;;;23.55;59.21
75006;BME280;63553;51.814;4.600;2023-09-07T06:23:23;102052.59;;;24.55;57.61
75006;BME280;63553;51.814;4.600;2023-09-07T06:25:49;102051.44;;;24.97;56.25
75006;BME280;63553;51.814;4.600;2023-09-07T06:28:14;102050.50;;;24.19;56.63
75006;BME280;63553;51.814;4.600;2023-09-07T06:30:40;102051.56;;;24.74;56.11
75006;BME280;63553;51.814;4.600;2023-09-07T06:33:05;102061.56;;;23.98;57.30
75006;BME280;63553;51.814;4.600;2023-09-07T06:35:30;102064.56;;;25.08;54.71
75006;BME280;63553;51.814;4.600;2023-09-07T06:37:56;102056.53;;;24.14;56.18
75006;BME280;63553;51.814;4.600;2023-09-07T06:40:22;102070.44;;;23.66;58.16
75006;BME280;63553;51.814;4.600;2023-09-07T06:42:47;102064.81;;;25.36;54.85
75006;BME280;63553;51.814;4.600;2023-09-07T06:45:13;102062.66;;;26.25;52.35
75006;BME280;63553;51.814;4.600;2023-09-07T06:47:38;102062.88;;;25.00;55.76
75006;BME280;63553;51.814;4.600;2023-09-07T06:50:04;102056.25;;;25.33;52.91
75006;BME280;63553;51.814;4.600;2023-09-07T06:52:30;102054.31;;;24.30;55.77
75006;BME280;63553;51.814;4.600;2023-09-07T06:54:56;102061.84;;;26.28;51.32
75006;BME280;63553;51.814;4.600;2023-09-07T06:57:21;102052.47;;;26.34;51.83
75006;BME280;63553;51.814;4.600;2023-09-07T06:59:47;102053.31;;;26.35;51.27
75006;BME280;63553;51.814;4.600;2023-09-07T07:02:13;102056.19;;;25.26;51.43
75006;BME280;63553;51.814;4.600;2023-09-07T07:04:39;102052.94;;;25.75;53.07
75006;BME280;63553;51.814;4.600;2023-09-07T07:07:04;102057.38;;;25.65;51.07
75006;BME280;63553;51.814;4.600;2023-09-07T07:09:31;102070.44;;;24.52;55.11
75006;BME280;63553;51.814;4.600;2023-09-07T07:11:57;102059.50;;;25.82;52.99
75006;BME280;63553;51.814;4.600;2023-09-07T07:14:23;102060.28;;;25.76;51.40
75006;BME280;63553;51.814;4.600;2023-09-07T07:16:48;102062.50;;;27.15;48.62
75006;BME280;63553;51.814;4.600;2023-09-07T07:19:13;102057.66;;;27.57;48.67
75006;BME280;63553;51.814;4.600;2023-09-07T07:21:39;102062.25;;;26.30;50.55
75006;BME280;63553;51.814;4.600;2023-09-07T07:24:04;102057.63;;;27.65;46.86
75006;BME280;63553;51.814;4.600;2023-09-07T07:26:32;102053.50;;;26.81;48.08
75006;BME280;63553;51.814;4.600;2023-09-07T07:28:57;102053.16;;;27.42;47.37
75006;BME280;63553;51.814;4.600;2023-09-07T07:31:23;102055.47;;;26.77;48.23
75006;BME280;63553;51.814;4.600;2023-09-07T07:33:48;102048.56;;;28.19;46.03
75006;BME280;63553;51.814;4.600;2023-09-07T07:36:14;102059.28;;;27.20;47.73
75006;BME280;63553;51.814;4.600;2023-09-07T07:38:39;102053.28;;;26.28;48.63
75006;BME280;63553;51.814;4.600;2023-09-07T07:41:05;102057.19;;;26.02;50.69
75006;BME280;63553;51.814;4.600;2023-09-07T07:43:32;102045.88;;;25.11;52.63
75006;BME280;63553;51.814;4.600;2023-09-07T07:45:57;102055.47;;;24.92;52.69
75006;BME280;63553;51.814;4.600;2023-09-07T07:48:24;102044.06;;;25.87;51.13
75006;BME280;63553;51.814;4.600;2023-09-07T07:50:49;102042.34;;;25.21;52.13
75006;BME280;63553;51.814;4.600;2023-09-07T07:53:14;102048.66;;;25.04;52.53
75006;BME280;63553;51.814;4.600;2023-09-07T07:55:40;102047.72;;;24.56;54.10
75006;BME280;63553;51.814;4.600;2023-09-07T07:58:06;102039.78;;;26.18;50.88
75006;BME280;63553;51.814;4.600;2023-09-07T08:00:38;102043.72;;;26.99;47.92
75006;BME280;63553;51.814;4.600;2023-09-07T08:03:04;102039.69;;;27.22;48.96
75006;BME280;63553;51.814;4.600;2023-09-07T08:05:33;102044.09;;;26.87;48.95
75006;BME280;63553;51.814;4.600;2023-09-07T08:07:58;102048.66;;;27.17;48.46
75006;BME280;63553;51.814;4.600;2023-09-07T08:10:24;102023.31;;;29.38;44.23
75006;BME280;63553;51.814;4.600;2023-09-07T08:12:56;102025.00;;;27.37;47.88
75006;BME280;63553;51.814;4.600;2023-09-07T08:15:21;102022.09;;;25.87;51.04
75006;BME280;63553;51.814;4.600;2023-09-07T08:17:48;102027.00;;;26.84;48.88
75006;BME280;63553;51.814;4.600;2023-09-07T08:20:14;102026.44;;;26.46;49.56
75006;BME280;63553;51.814;4.600;2023-09-07T08:22:40;102033.56;;;27.02;48.37
75006;BME280;63553;51.814;4.600;2023-09-07T08:25:08;102024.56;;;27.21;48.74
75006;BME280;63553;51.814;4.600;2023-09-07T08:27:34;102030.25;;;26.96;48.42
75006;BME280;63553;51.814;4.600;2023-09-07T08:29:59;102019.22;;;27.87;46.77
75006;BME280;63553;51.814;4.600;2023-09-07T08:32:25;102015.59;;;28.77;45.34
75006;BME280;63553;51.814;4.600;2023-09-07T08:34:50;102019.66;;;28.79;45.84
75006;BME280;63553;51.814;4.600;2023-09-07T08:37:16;102010.97;;;29.45;44.61
75006;BME280;63553;51.814;4.600;2023-09-07T08:39:41;102013.50;;;27.87;46.49
75006;BME280;63553;51.814;4.600;2023-09-07T08:42:07;102024.13;;;26.87;50.21
75006;BME280;63553;51.814;4.600;2023-09-07T08:44:34;102017.22;;;27.02;49.29
75006;BME280;63553;51.814;4.600;2023-09-07T08:47:02;102010.94;;;29.00;44.91
75006;BME280;63553;51.814;4.600;2023-09-07T08:49:29;102020.06;;;26.92;48.82
75006;BME280;63553;51.814;4.600;2023-09-07T08:51:59;102011.53;;;27.38;47.88
75006;BME280;63553;51.814;4.600;2023-09-07T08:54:25;102014.38;;;26.95;47.97
75006;BME280;63553;51.814;4.600;2023-09-07T08:56:51;102018.06;;;27.31;48.92
75006;BME280;63553;51.814;4.600;2023-09-07T08:59:16;102008.50;;;28.19;47.85
75006;BME280;63553;51.814;4.600;2023-09-07T09:01:41;102005.91;;;28.53;45.84
75006;BME280;63553;51.814;4.600;2023-09-07T09:04:07;102006.53;;;28.05;47.11
75006;BME280;63553;51.814;4.600;2023-09-07T09:06:33;102018.31;;;28.18;47.05
75006;BME280;63553;51.814;4.600;2023-09-07T09:08:59;102008.31;;;29.24;45.29
75006;BME280;63553;51.814;4.600;2023-09-07T09:11:25;102018.28;;;30.88;43.74
75006;BME280;63553;51.814;4.600;2023-09-07T09:13:52;102012.09;;;30.29;43.51
75006;BME280;63553;51.814;4.600;2023-09-07T09:16:19;102009.22;;;31.39;41.86
75006;BME280;63553;51.814;4.600;2023-09-07T09:18:54;102017.41;;;29.97;42.45
75006;BME280;63553;51.814;4.600;2023-09-07T09:21:21;102017.13;;;28.01;46.63
75006;BME280;63553;51.814;4.600;2023-09-07T09:23:49;102010.53;;;28.22;46.54
75006;BME280;63553;51.814;4.600;2023-09-07T09:26:17;102016.00;;;27.25;48.57
75006;BME280;63553;51.814;4.600;2023-09-07T09:28:43;102014.53;;;29.08;44.41
75006;BME280;63553;51.814;4.600;2023-09-07T09:31:13;102020.31;;;28.28;45.32
75006;BME280;63553;51.814;4.600;2023-09-07T09:33:39;102014.84;;;29.20;43.83
75006;BME280;63553;51.814;4.600;2023-09-07T09:36:06;102013.53;;;29.36;43.48
75006;BME280;63553;51.814;4.600;2023-09-07T09:38:32;102018.44;;;28.80;44.10
75006;BME280;63553;51.814;4.600;2023-09-07T09:40:59;102007.94;;;30.00;41.37
75006;BME280;63553;51.814;4.600;2023-09-07T09:43:26;102005.81;;;31.21;40.34
75006;BME280;63553;51.814;4.600;2023-09-07T09:45:52;102009.94;;;29.21;43.59
75006;BME280;63553;51.814;4.600;2023-09-07T09:48:21;102003.44;;;29.61;41.96
75006;BME280;63553;51.814;4.600;2023-09-07T09:50:47;102014.47;;;30.95;40.54
75006;BME280;63553;51.814;4.600;2023-09-07T09:53:15;102002.66;;;29.98;41.28
75006;BME280;63553;51.814;4.600;2023-09-07T09:55:44;102010.97;;;29.45;42.16
75006;BME280;63553;51.814;4.600;2023-09-07T09:58:12;102012.59;;;31.11;41.10
75006;BME280;63553;51.814;4.600;2023-09-07T10:00:38;102010.13;;;31.10;40.52
75006;BME280;63553;51.814;4.600;2023-09-07T10:03:08;102006.34;;;31.16;39.53
75006;BME280;63553;51.814;4.600;2023-09-07T10:05:36;102003.56;;;31.79;39.86
75006;BME280;63553;51.814;4.600;2023-09-07T10:08:03;102002.00;;;29.43;42.58
75006;BME280;63553;51.814;4.600;2023-09-07T10:10:36;102003.38;;;30.40;41.28
75006;BME280;63553;51.814;4.600;2023-09-07T10:13:02;102001.56;;;30.19;41.87
75006;BME280;63553;51.814;4.600;2023-09-07T10:15:27;102000.16;;;29.63;42.63
75006;BME280;63553;51.814;4.600;2023-09-07T10:18:13;101999.94;;;28.19;44.38
75006;BME280;63553;51.814;4.600;2023-09-07T10:20:57;101981.97;;;28.88;43.41
75006;BME280;63553;51.814;4.600;2023-09-07T10:23:34;101980.16;;;29.08;44.38
75006;BME280;63553;51.814;4.600;2023-09-07T10:26:00;101977.91;;;28.85;44.00
75006;BME280;63553;51.814;4.600;2023-09-07T10:28:25;101981.19;;;29.35;42.58
75006;BME280;63553;51.814;4.600;2023-09-07T10:31:04;101977.31;;;28.46;43.83
75006;BME280;63553;51.814;4.600;2023-09-07T10:33:31;101983.47;;;29.06;43.52
75006;BME280;63553;51.814;4.600;2023-09-07T10:35:57;101985.81;;;28.67;44.27
75006;BME280;63553;51.814;4.600;2023-09-07T10:38:23;101979.28;;;29.18;43.13
75006;BME280;63553;51.814;4.600;2023-09-07T10:40:54;101983.75;;;28.71;44.15
75006;BME280;63553;51.814;4.600;2023-09-07T10:43:23;101980.88;;;27.70;45.43
75006;BME280;63553;51.814;4.600;2023-09-07T10:45:49;101978.97;;;28.40;44.30
75006;BME280;63553;51.814;4.600;2023-09-07T10:48:16;101972.38;;;28.53;44.76
75006;BME280;63553;51.814;4.600;2023-09-07T10:50:43;101973.75;;;28.90;43.81
75006;BME280;63553;51.814;4.600;2023-09-07T10:53:09;101973.41;;;29.36;43.34
75006;BME280;63553;51.814;4.600;2023-09-07T10:55:38;101970.53;;;28.88;44.46
75006;BME280;63553;51.814;4.600;2023-09-07T10:58:05;101978.47;;;28.59;44.99
75006;BME280;63553;51.814;4.600;2023-09-07T11:00:31;101980.19;;;28.42;44.92
75006;BME280;63553;51.814;4.600;2023-09-07T11:02:56;101979.13;;;27.97;45.24
75006;BME280;63553;51.814;4.600;2023-09-07T11:05:21;101973.94;;;29.16;43.50
75006;BME280;63553;51.814;4.600;2023-09-07T11:07:47;101965.66;;;28.81;43.50
75006;BME280;63553;51.814;4.600;2023-09-07T11:10:13;101963.28;;;28.69;43.09
75006;BME280;63553;51.814;4.600;2023-09-07T11:12:39;101960.03;;;28.63;44.59
75006;BME280;63553;51.814;4.600;2023-09-07T11:15:08;101966.75;;;28.36;45.28
75006;BME280;63553;51.814;4.600;2023-09-07T11:17:37;101957.63;;;28.55;45.13
75006;BME280;63553;51.814;4.600;2023-09-07T11:20:04;101954.75;;;28.58;44.86
75006;BME280;63553;51.814;4.600;2023-09-07T11:22:33;101953.44;;;28.77;44.37
75006;BME280;63553;51.814;4.600;2023-09-07T11:25:01;101955.63;;;28.45;45.22
75006;BME280;63553;51.814;4.600;2023-09-07T11:27:30;101955.13;;;28.71;45.68
75006;BME280;63553;51.814;4.600;2023-09-07T11:29:56;101949.66;;;28.18;45.71
75006;BME280;63553;51.814;4.600;2023-09-07T11:32:22;101944.94;;;27.76;46.37
75006;BME280;63553;51.814;4.600;2023-09-07T11:34:49;101936.66;;;28.06;47.05
75006;BME280;63553;51.814;4.600;2023-09-07T11:37:15;101948.41;;;28.26;46.06
75006;BME280;63553;51.814;4.600;2023-09-07T11:39:40;101940.44;;;28.58;46.15
75006;BME280;63553;51.814;4.600;2023-09-07T11:42:06;101940.00;;;28.60;45.25
75006;BME280;63553;51.814;4.600;2023-09-07T11:44:31;101943.41;;;28.44;45.85
75006;BME280;63553;51.814;4.600;2023-09-07T11:46:56;101942.13;;;28.52;45.98
75006;BME280;63553;51.814;4.600;2023-09-07T11:49:22;101937.38;;;28.28;46.06
75006;BME280;63553;51.814;4.600;2023-09-07T11:51:47;101934.59;;;28.10;47.06
75006;BME280;63553;51.814;4.600;2023-09-07T11:54:12;101933.75;;;28.17;46.09
75006;BME280;63553;51.814;4.600;2023-09-07T11:56:38;101928.06;;;28.10;46.38
75006;BME280;63553;51.814;4.600;2023-09-07T11:59:08;101924.50;;;27.74;46.76
75006;BME280;63553;51.814;4.600;2023-09-07T12:01:33;101927.69;;;28.04;46.96
75006;BME280;63553;51.814;4.600;2023-09-07T12:03:59;101927.38;;;28.54;46.54
75006;BME280;63553;51.814;4.600;2023-09-07T12:06:24;101922.69;;;28.23;46.83
75006;BME280;63553;51.814;4.600;2023-09-07T12:09:04;101915.75;;;28.24;47.16
75006;BME280;63553;51.814;4.600;2023-09-07T12:11:30;101905.00;;;28.42;46.46
75006;BME280;63553;51.814;4.600;2023-09-07T12:13:56;101902.66;;;28.26;44.56
75006;BME280;63553;51.814;4.600;2023-09-07T12:16:22;101901.72;;;28.40;43.67
75006;BME280;63553;51.814;4.600;2023-09-07T12:18:47;101892.19;;;28.64;43.92
75006;BME280;63553;51.814;4.600;2023-09-07T12:21:12;101893.34;;;28.74;44.27
75006;BME280;63553;51.814;4.600;2023-09-07T12:23:38;101892.28;;;28.46;45.48
75006;BME280;63553;51.814;4.600;2023-09-07T12:26:03;101888.47;;;28.71;44.01
75006;BME280;63553;51.814;4.600;2023-09-07T12:28:32;101891.84;;;28.51;45.52
75006;BME280;63553;51.814;4.600;2023-09-07T12:30:58;101885.50;;;28.81;45.04
75006;BME280;63553;51.814;4.600;2023-09-07T12:33:23;101886.44;;;28.60;44.65
75006;BME280;63553;51.814;4.600;2023-09-07T12:35:49;101890.97;;;28.58;44.16
75006;BME280;63553;51.814;4.600;2023-09-07T12:38:14;101897.16;;;28.49;44.06
75006;BME280;63553;51.814;4.600;2023-09-07T12:40:46;101886.91;;;28.55;44.35
75006;BME280;63553;51.814;4.600;2023-09-07T12:43:11;101882.13;;;28.38;44.77
75006;BME280;63553;51.814;4.600;2023-09-07T12:45:36;101879.91;;;28.60;44.20